Time;durP1;ratioP1;P1;durP2;ratioP2;P2;SDS_P1;SDS_P2;PMS_P1;PMS_P2;Temp;Humidity;BMP_temperature;BMP_pressure;BME280_temperature;BME280_humidity;BME280_pressure;Samples;Min_cycle;Max_cycle;Signal;HPM_P1;HPM_P2
2024/02/25 00:00:47;;;;;;;1.10;0.60;;;;;;;7.26;100.00;99907.34;5288804;28;20036;-77
2024/02/25 00:03:19;;;;;;;1.77;0.82;;;;;;;7.24;100.00;99904.06;5287388;28;20035;-77
2024/02/25 00:05:51;;;;;;;2.65;0.98;;;;;;;7.24;100.00;99910.09;5286348;28;20450;-78
2024/02/25 00:08:23;;;;;;;2.92;0.80;;;;;;;7.22;100.00;99916.38;5284670;28;20780;-76
2024/02/25 00:10:55;;;;;;;1.63;0.70;;;;;;;7.24;100.00;99911.88;5276283;28;20039;-77
2024/02/25 00:13:27;;;;;;;1.52;0.80;;;;;;;7.14;100.00;99898.00;5287379;28;20039;-78
2024/02/25 00:15:59;;;;;;;2.10;0.90;;;;;;;7.20;100.00;99908.72;5284086;28;20094;-77
2024/02/25 00:18:31;;;;;;;2.72;0.68;;;;;;;7.25;100.00;99916.13;5284785;28;20031;-77
2024/02/25 00:21:03;;;;;;;2.00;0.70;;;;;;;7.28;100.00;99915.88;5288311;28;20591;-76
2024/02/25 00:23:35;;;;;;;1.92;0.90;;;;;;;7.22;100.00;99913.78;5286660;28;20038;-76
2024/02/25 00:26:09;;;;;;;1.58;0.60;;;;;;;7.14;100.00;99914.44;5285657;28;20384;-77
2024/02/25 00:28:41;;;;;;;2.08;0.70;;;;;;;7.14;100.00;99919.66;5286008;28;20039;-77
2024/02/25 00:31:13;;;;;;;2.15;0.70;;;;;;;7.14;100.00;99917.03;5289134;28;20473;-77
2024/02/25 00:33:46;;;;;;;1.75;1.10;;;;;;;7.12;100.00;99918.13;5287527;28;20438;-77
2024/02/25 00:36:18;;;;;;;2.10;0.80;;;;;;;7.08;100.00;99914.94;5281256;28;20046;-77
2024/02/25 00:38:50;;;;;;;1.40;0.77;;;;;;;7.12;100.00;99918.13;5263099;28;20037;-77
2024/02/25 00:41:22;;;;;;;2.00;0.95;;;;;;;7.13;100.00;99922.41;5279948;28;20031;-77
2024/02/25 00:43:54;;;;;;;1.63;0.75;;;;;;;7.06;100.00;99922.91;5285540;28;20077;-78
2024/02/25 00:46:26;;;;;;;2.28;0.80;;;;;;;7.13;100.00;99920.59;5284264;28;20031;-77
2024/02/25 00:48:59;;;;;;;2.40;0.90;;;;;;;7.11;100.00;99917.28;5275974;28;20063;-77
2024/02/25 00:51:31;;;;;;;2.05;0.70;;;;;;;7.14;100.00;99924.03;5287469;28;20036;-77
2024/02/25 00:54:04;;;;;;;1.40;0.80;;;;;;;7.12;100.00;99925.94;5285003;28;20042;-77
2024/02/25 00:56:36;;;;;;;1.83;0.80;;;;;;;7.19;100.00;99932.28;5285724;28;20053;-77
2024/02/25 00:59:08;;;;;;;1.55;0.70;;;;;;;7.13;100.00;99933.63;5282978;28;20042;-77
2024/02/25 01:01:40;;;;;;;3.53;0.80;;;;;;;7.14;100.00;99926.63;5285731;28;20150;-77
2024/02/25 01:04:11;;;;;;;2.08;0.98;;;;;;;7.15;100.00;99928.28;5285696;28;20051;-77
2024/02/25 01:06:43;;;;;;;1.33;0.68;;;;;;;7.27;100.00;99922.00;5284555;28;20020;-77
2024/02/25 01:09:15;;;;;;;1.55;0.80;;;;;;;7.43;100.00;99905.91;5285301;28;20040;-77
2024/02/25 01:11:47;;;;;;;2.13;0.80;;;;;;;7.52;100.00;99920.75;5285435;28;20042;-77
2024/02/25 01:14:20;;;;;;;1.88;0.80;;;;;;;7.58;100.00;99925.44;5286741;28;20024;-77
2024/02/25 01:16:52;;;;;;;2.17;0.80;;;;;;;7.59;100.00;99926.25;5285994;28;20031;-77
2024/02/25 01:19:24;;;;;;;1.00;0.70;;;;;;;7.61;100.00;99932.13;5283437;28;20031;-78
2024/02/25 01:21:56;;;;;;;1.92;0.70;;;;;;;7.60;100.00;99920.88;5283575;28;20036;-77
2024/02/25 01:24:28;;;;;;;1.38;0.90;;;;;;;7.60;100.00;99927.91;5286187;28;20796;-77
2024/02/25 01:26:59;;;;;;;1.33;0.88;;;;;;;7.56;100.00;99922.13;5283674;28;20504;-77
2024/02/25 01:29:31;;;;;;;1.40;0.70;;;;;;;7.62;100.00;99928.59;5284035;28;20047;-77
2024/02/25 01:32:04;;;;;;;1.48;0.90;;;;;;;7.61;100.00;99919.09;5286635;28;20069;-77
2024/02/25 01:34:36;;;;;;;2.30;0.80;;;;;;;7.59;100.00;99919.25;5285221;28;20036;-77
2024/02/25 01:37:08;;;;;;;2.97;0.82;;;;;;;7.60;100.00;99914.84;5284143;28;20036;-77
2024/02/25 01:39:39;;;;;;;3.70;1.00;;;;;;;7.64;100.00;99924.06;5281024;28;20116;-77
2024/02/25 01:42:11;;;;;;;1.38;0.88;;;;;;;7.59;100.00;99913.22;5284574;28;20618;-77
2024/02/25 01:45:01;;;;;;;1.23;0.70;;;;;;;7.81;100.00;99913.00;5283603;28;20032;-77
2024/02/25 01:47:33;;;;;;;1.83;0.95;;;;;;;7.64;100.00;99909.25;5282595;28;20032;-77
2024/02/25 01:50:06;;;;;;;1.50;0.80;;;;;;;7.60;100.00;99905.25;5286106;28;20050;-77
2024/02/25 01:52:37;;;;;;;1.88;0.80;;;;;;;7.63;100.00;99906.78;5284278;28;20358;-77
2024/02/25 01:55:09;;;;;;;2.72;0.70;;;;;;;7.66;100.00;99901.31;5284985;28;20077;-77
2024/02/25 01:57:42;;;;;;;2.67;1.00;;;;;;;7.64;100.00;99906.63;5266765;28;20040;-77
2024/02/25 02:00:16;;;;;;;1.98;1.00;;;;;;;7.66;100.00;99901.31;5281616;28;20035;-77
2024/02/25 02:02:48;;;;;;;1.42;0.90;;;;;;;7.71;100.00;99905.13;5283992;28;20051;-77
2024/02/25 02:05:20;;;;;;;1.50;0.90;;;;;;;7.75;100.00;99897.88;5285262;28;20032;-78
2024/02/25 02:07:53;;;;;;;1.85;1.08;;;;;;;7.63;100.00;99881.53;5286884;28;20039;-77
2024/02/25 02:10:24;;;;;;;2.42;1.15;;;;;;;7.72;100.00;99892.91;5284694;28;20078;-77
2024/02/25 02:12:56;;;;;;;2.20;1.00;;;;;;;7.67;100.00;99893.34;5283179;28;20020;-77
2024/02/25 02:15:28;;;;;;;1.50;0.93;;;;;;;7.66;100.00;99894.31;5285133;28;20039;-78
2024/02/25 02:18:03;;;;;;;1.60;0.90;;;;;;;7.65;100.00;99897.03;5283643;28;20904;-77
2024/02/25 02:20:35;;;;;;;2.30;1.15;;;;;;;7.63;100.00;99896.34;5286923;28;20516;-77
2024/02/25 02:23:07;;;;;;;2.50;1.20;;;;;;;7.62;100.00;99884.28;5285239;28;20036;-77
2024/02/25 02:25:39;;;;;;;1.40;0.80;;;;;;;7.61;100.00;99893.84;5285820;28;20038;-77
2024/02/25 02:28:11;;;;;;;1.95;1.08;;;;;;;7.60;100.00;99889.63;5283247;28;20038;-77
2024/02/25 02:30:43;;;;;;;2.03;1.08;;;;;;;7.55;100.00;99889.19;5286037;28;20028;-78
2024/02/25 02:33:14;;;;;;;1.85;0.93;;;;;;;7.56;100.00;99885.63;5282431;28;20024;-77
2024/02/25 02:35:46;;;;;;;3.50;1.10;;;;;;;7.52;100.00;99892.06;5283864;28;20046;-77
2024/02/25 02:38:19;;;;;;;1.88;1.00;;;;;;;7.49;100.00;99876.69;5285145;28;20032;-77
2024/02/25 02:40:51;;;;;;;1.50;1.10;;;;;;;7.57;100.00;99895.91;5284293;28;20032;-77
2024/02/25 02:43:23;;;;;;;1.27;0.70;;;;;;;7.50;100.00;99887.00;5283896;28;20366;-77
2024/02/25 02:45:55;;;;;;;1.50;0.70;;;;;;;7.48;100.00;99888.09;5284889;28;21081;-77
2024/02/25 02:48:27;;;;;;;2.53;0.82;;;;;;;7.45;100.00;99881.34;5288746;28;20040;-77
2024/02/25 02:50:59;;;;;;;1.35;0.80;;;;;;;7.49;100.00;99882.72;5288826;28;20111;-77
2024/02/25 02:53:31;;;;;;;1.60;0.82;;;;;;;7.47;100.00;99895.09;5287502;28;20042;-77
2024/02/25 02:56:03;;;;;;;1.55;0.80;;;;;;;7.43;100.00;99892.88;5289229;28;20044;-77
2024/02/25 02:58:36;;;;;;;1.55;0.80;;;;;;;7.45;100.00;99885.75;5287464;28;20051;-77
2024/02/25 03:01:08;;;;;;;1.55;0.80;;;;;;;7.47;100.00;99887.25;5281782;28;20039;-77
2024/02/25 03:03:39;;;;;;;1.92;0.80;;;;;;;7.50;100.00;99891.38;5288137;28;20500;-77
2024/02/25 03:06:11;;;;;;;1.45;0.73;;;;;;;7.49;100.00;99892.34;5283658;28;20032;-77
2024/02/25 03:08:43;;;;;;;1.70;0.88;;;;;;;7.42;100.00;99886.00;5281799;28;20046;-77
2024/02/25 03:11:15;;;;;;;2.08;1.10;;;;;;;7.37;100.00;99883.81;5286189;28;20069;-77
2024/02/25 03:13:47;;;;;;;2.28;0.80;;;;;;;7.42;100.00;99880.78;5287160;28;20036;-77
2024/02/25 03:16:19;;;;;;;1.50;0.70;;;;;;;7.42;100.00;99880.78;5286963;28;20034;-77
2024/02/25 03:18:51;;;;;;;1.37;0.60;;;;;;;7.42;100.00;99889.44;5287225;28;20028;-77
2024/02/25 03:21:23;;;;;;;1.58;0.70;;;;;;;7.36;100.00;99882.16;5285281;28;20038;-77
2024/02/25 03:23:55;;;;;;;1.20;0.70;;;;;;;7.30;100.00;99874.88;5288394;28;20040;-77
2024/02/25 03:26:27;;;;;;;2.25;0.80;;;;;;;7.37;100.00;99883.81;5288457;28;20055;-77
2024/02/25 03:28:59;;;;;;;0.98;0.68;;;;;;;7.39;100.00;99891.50;5285906;28;20686;-77
2024/02/25 03:31:31;;;;;;;2.35;0.70;;;;;;;7.40;100.00;99888.75;5287530;28;20409;-77
2024/02/25 03:34:02;;;;;;;1.92;0.80;;;;;;;7.40;100.00;99888.75;5287033;28;20119;-77
2024/02/25 03:36:35;;;;;;;1.33;0.70;;;;;;;7.36;100.00;99887.38;5287869;28;20024;-77
2024/02/25 03:39:06;;;;;;;1.40;0.70;;;;;;;7.36;100.00;99891.75;5287010;28;20040;-77
2024/02/25 03:41:38;;;;;;;1.85;0.70;;;;;;;7.31;100.00;99887.78;5286984;28;20032;-77
2024/02/25 03:44:10;;;;;;;1.63;0.80;;;;;;;7.33;100.00;99892.84;5287096;28;20065;-77
2024/02/25 03:46:45;;;;;;;1.70;0.77;;;;;;;7.29;100.00;99889.69;5287638;28;20034;-77
2024/02/25 03:49:17;;;;;;;1.98;0.77;;;;;;;7.31;100.00;99892.13;5285740;28;20051;-77
2024/02/25 03:51:49;;;;;;;1.42;0.68;;;;;;;7.34;100.00;99884.06;5287543;28;20028;-77
2024/02/25 03:54:21;;;;;;;1.20;0.68;;;;;;;7.31;100.00;99889.53;5285938;28;20044;-77
2024/02/25 03:56:53;;;;;;;1.50;0.73;;;;;;;7.29;100.00;99887.06;5284078;28;20478;-77
2024/02/25 03:59:25;;;;;;;1.58;0.98;;;;;;;7.34;100.00;99891.06;5286557;28;20047;-77
2024/02/25 04:01:57;;;;;;;1.10;0.73;;;;;;;7.37;100.00;99894.22;5285958;28;20044;-77
2024/02/25 04:04:29;;;;;;;1.60;0.80;;;;;;;7.28;100.00;99884.63;5286598;28;20032;-77
2024/02/25 04:07:01;;;;;;;1.42;0.98;;;;;;;7.29;100.00;99891.47;5285446;28;20066;-77
2024/02/25 04:09:32;;;;;;;2.15;0.85;;;;;;;7.26;100.00;99889.94;5286351;28;20047;-77
2024/02/25 04:12:05;;;;;;;1.27;0.80;;;;;;;7.26;100.00;99895.16;5287536;28;20103;-77
2024/02/25 04:14:36;;;;;;;1.42;0.77;;;;;;;7.26;100.00;99889.94;5287750;28;20046;-76
2024/02/25 04:17:08;;;;;;;1.58;0.98;;;;;;;7.26;100.00;99894.31;5286809;28;20444;-77
2024/02/25 04:19:40;;;;;;;1.60;0.80;;;;;;;7.27;100.00;99896.81;5281696;28;20044;-77
2024/02/25 04:22:12;;;;;;;1.55;0.90;;;;;;;7.25;100.00;99890.91;5286221;28;20034;-77
2024/02/25 04:24:44;;;;;;;1.75;0.73;;;;;;;7.22;100.00;99898.97;5284420;28;20036;-77
2024/02/25 04:27:17;;;;;;;2.70;0.80;;;;;;;7.26;100.00;99899.53;5286813;28;20040;-77
2024/02/25 04:29:49;;;;;;;2.33;0.95;;;;;;;7.23;100.00;99895.41;5285711;28;20027;-77
2024/02/25 04:32:21;;;;;;;1.70;0.90;;;;;;;7.19;100.00;99894.03;5284908;28;20039;-77
2024/02/25 04:34:53;;;;;;;1.52;0.90;;;;;;;7.20;100.00;99903.50;5283411;28;20036;-77
2024/02/25 04:37:26;;;;;;;1.38;1.00;;;;;;;7.23;100.00;99899.78;5282090;28;20031;-77
2024/02/25 04:39:57;;;;;;;1.75;0.98;;;;;;;7.27;100.00;99901.19;5285338;28;20035;-77
2024/02/25 04:42:29;;;;;;;2.15;1.20;;;;;;;7.23;100.00;99899.78;5285340;28;20036;-77
2024/02/25 04:45:02;;;;;;;1.40;1.02;;;;;;;7.28;100.00;99901.06;5280774;28;20024;-77
2024/02/25 04:47:35;;;;;;;1.90;1.23;;;;;;;7.26;100.00;99897.75;5285014;28;20048;-77
2024/02/25 04:50:07;;;;;;;2.13;1.20;;;;;;;7.22;100.00;99912.00;5280537;28;20043;-77
2024/02/25 04:52:39;;;;;;;3.43;1.47;;;;;;;7.21;100.00;99906.94;5285926;28;20043;-77
2024/02/25 04:55:11;;;;;;;3.25;1.60;;;;;;;7.24;100.00;99899.69;5283302;28;20040;-77
2024/02/25 04:57:43;;;;;;;2.30;1.58;;;;;;;7.23;100.00;99902.41;5286285;28;20097;-77
2024/02/25 05:00:15;;;;;;;1.80;1.30;;;;;;;7.21;100.00;99893.91;5285468;28;20075;-77
2024/02/25 05:02:47;;;;;;;2.42;1.40;;;;;;;7.13;100.00;99898.94;5283612;28;20032;-77
2024/02/25 05:05:19;;;;;;;2.10;1.60;;;;;;;7.11;100.00;99903.47;5285654;28;20512;-77
2024/02/25 05:07:52;;;;;;;2.75;1.80;;;;;;;7.12;100.00;99905.09;5282769;28;21066;-77
2024/02/25 05:10:24;;;;;;;;;;;;;;;7.75;100.00;99914.34;5282981;28;20042;-77
2024/02/25 05:12:55;;;;;;;3.42;1.80;;;;;;;7.22;100.00;99895.53;5284476;28;19916;-77
2024/02/25 05:15:28;;;;;;;2.47;1.92;;;;;;;7.18;100.00;99902.78;5282958;28;20035;-77
2024/02/25 05:18:01;;;;;;;2.17;1.70;;;;;;;7.20;100.00;99907.91;5281905;28;20032;-77
2024/02/25 05:20:33;;;;;;;2.47;2.28;;;;;;;7.20;100.00;99906.13;5284992;28;20039;-77
2024/02/25 05:23:05;;;;;;;2.78;1.63;;;;;;;7.14;100.00;99914.44;5282055;28;20533;-77
2024/02/25 05:25:37;;;;;;;2.70;2.22;;;;;;;7.21;100.00;99912.13;5285024;28;20036;-77
2024/02/25 05:28:09;;;;;;;2.42;1.95;;;;;;;7.18;100.00;99922.81;5286405;28;20036;-77
2024/02/25 05:30:41;;;;;;;2.25;2.00;;;;;;;7.16;100.00;99914.28;5284738;28;20052;-77
2024/02/25 05:33:13;;;;;;;2.40;1.98;;;;;;;7.18;100.00;99913.22;5285315;28;20095;-77
2024/02/25 05:35:45;;;;;;;2.45;2.00;;;;;;;7.16;100.00;99915.16;5284600;28;20032;-77
2024/02/25 05:38:17;;;;;;;2.55;2.10;;;;;;;7.18;100.00;99915.81;5284188;28;20031;-77
2024/02/25 05:40:48;;;;;;;2.63;1.92;;;;;;;7.20;100.00;99918.31;5282958;28;20363;-77
2024/02/25 05:43:20;;;;;;;3.50;2.40;;;;;;;7.21;100.00;99914.75;5287492;28;20040;-77
2024/02/25 05:45:52;;;;;;;3.53;2.22;;;;;;;7.24;100.00;99919.69;5283950;28;20031;-77
2024/02/25 05:48:24;;;;;;;2.60;2.10;;;;;;;7.25;100.00;99921.34;5285856;28;20032;-77
2024/02/25 05:50:56;;;;;;;4.30;2.42;;;;;;;7.30;100.00;99924.38;5283635;28;20457;-77
2024/02/25 05:53:28;;;;;;;3.30;2.50;;;;;;;7.22;100.00;99916.38;5286039;28;20069;-77
2024/02/25 05:56:00;;;;;;;3.28;2.20;;;;;;;7.23;100.00;99929.28;5282827;28;20056;-77
2024/02/25 05:58:34;;;;;;;2.60;2.00;;;;;;;7.25;100.00;99927.38;5284432;28;20044;-77
2024/02/25 06:01:07;;;;;;;3.22;2.08;;;;;;;7.26;100.00;99925.59;5281266;28;20050;-77
2024/02/25 06:03:40;;;;;;;2.72;2.00;;;;;;;7.29;100.00;99927.94;5284428;28;20039;-77
2024/02/25 06:06:11;;;;;;;2.90;2.10;;;;;;;7.27;100.00;99929.84;5286613;28;20402;-77
2024/02/25 06:08:43;;;;;;;3.10;2.28;;;;;;;7.25;100.00;99939.56;5283620;28;20040;-77
2024/02/25 06:11:15;;;;;;;3.33;2.40;;;;;;;7.25;100.00;99944.78;5282539;28;20028;-77
2024/02/25 06:13:47;;;;;;;3.45;2.20;;;;;;;7.27;100.00;99941.09;5284232;28;20038;-77
2024/02/25 06:16:19;;;;;;;4.88;2.63;;;;;;;7.31;100.00;99934.69;5283038;28;20028;-77
2024/02/25 06:18:51;;;;;;;3.28;2.60;;;;;;;7.29;100.00;99944.38;5283330;28;20040;-77
2024/02/25 06:21:23;;;;;;;4.10;2.35;;;;;;;7.27;100.00;99945.47;5286893;28;20036;-77
2024/02/25 06:23:55;;;;;;;4.20;2.67;;;;;;;7.28;100.00;99945.34;5290024;28;20485;-77
2024/02/25 06:26:26;;;;;;;4.60;2.63;;;;;;;7.29;100.00;99951.38;5289128;28;20530;-77
2024/02/25 06:28:58;;;;;;;4.25;2.63;;;;;;;7.28;100.00;99941.94;5286361;28;20050;-77
2024/02/25 06:31:31;;;;;;;4.20;2.70;;;;;;;7.33;100.00;99950.16;5289261;28;20032;-77
2024/02/25 06:34:03;;;;;;;4.53;3.10;;;;;;;7.36;100.00;99949.91;5289022;28;20028;-77
2024/02/25 06:36:35;;;;;;;7.10;2.90;;;;;;;7.31;100.00;99944.25;5285772;28;20031;-77
2024/02/25 06:39:10;;;;;;;3.13;2.58;;;;;;;7.35;100.00;99953.47;5287765;28;20035;-77
2024/02/25 06:41:42;;;;;;;3.20;2.88;;;;;;;7.21;100.00;99928.59;5289347;28;20497;-77
2024/02/25 06:44:14;;;;;;;3.67;2.70;;;;;;;7.37;100.00;99958.53;5286305;28;20034;-77
2024/02/25 06:46:45;;;;;;;4.38;2.80;;;;;;;7.40;100.00;99961.72;5288713;28;20046;-77
2024/02/25 06:49:17;;;;;;;3.72;3.03;;;;;;;7.30;100.00;99942.59;5281625;28;20036;-77
2024/02/25 06:51:49;;;;;;;3.13;2.78;;;;;;;7.39;100.00;99964.47;5287694;28;20032;-77
2024/02/25 06:54:21;;;;;;;6.10;3.33;;;;;;;7.31;100.00;99946.84;5289102;28;20044;-77
2024/02/25 06:56:53;;;;;;;3.80;3.05;;;;;;;7.36;100.00;99960.31;5286372;28;20493;-77
2024/02/25 06:59:25;;;;;;;3.10;2.60;;;;;;;7.37;100.00;99961.16;5286935;28;20405;-76
2024/02/25 07:01:57;;;;;;;4.93;2.63;;;;;;;7.38;100.00;99968.00;5287839;28;20036;-76
2024/02/25 07:04:29;;;;;;;6.00;2.88;;;;;;;7.40;100.00;99971.31;5287442;28;20040;-76
2024/02/25 07:07:01;;;;;;;3.22;2.53;;;;;;;7.40;100.00;99976.53;5289284;28;20032;-76
2024/02/25 07:09:33;;;;;;;3.92;3.03;;;;;;;7.31;100.00;99962.47;5287307;28;20239;-76
2024/02/25 07:12:05;;;;;;;3.00;2.67;;;;;;;7.42;100.00;99978.03;5289238;28;20036;-77
2024/02/25 07:14:37;;;;;;;6.23;2.80;;;;;;;7.45;100.00;99972.56;5286741;28;20039;-77
2024/02/25 07:17:10;;;;;;;7.82;3.28;;;;;;;7.40;100.00;99971.31;5285597;28;20036;-77
2024/02/25 07:19:45;;;;;;;4.40;2.42;;;;;;;7.57;100.00;99975.88;5285505;28;20028;-77
2024/02/25 07:22:17;;;;;;;4.75;2.42;;;;;;;7.43;100.00;99964.06;5288093;28;20488;-77
2024/02/25 07:24:49;;;;;;;3.45;2.78;;;;;;;7.52;100.00;99981.50;5281056;28;20031;-77
2024/02/25 07:27:21;;;;;;;3.55;2.67;;;;;;;7.50;100.00;99983.44;5286811;28;20052;-77
2024/02/25 07:29:53;;;;;;;2.78;2.58;;;;;;;7.53;100.00;99988.34;5286759;28;20031;-77
2024/02/25 07:32:25;;;;;;;2.70;2.38;;;;;;;7.56;100.00;99989.88;5284872;28;20027;-77
2024/02/25 07:34:58;;;;;;;2.88;2.58;;;;;;;7.55;100.00;99996.06;5283337;28;20032;-77
2024/02/25 07:37:30;;;;;;;4.47;2.83;;;;;;;7.56;100.00;99988.09;5284888;28;20039;-76
2024/02/25 07:40:02;;;;;;;3.25;2.70;;;;;;;7.52;100.00;99993.72;5284674;28;20507;-76
2024/02/25 07:42:34;;;;;;;3.03;2.55;;;;;;;7.54;100.00;99990.03;5280947;28;20104;-77
2024/02/25 07:45:06;;;;;;;3.47;2.88;;;;;;;7.57;100.00;99994.13;5287994;28;20040;-77
2024/02/25 07:47:38;;;;;;;2.80;2.40;;;;;;;7.59;100.00;99988.81;5287727;28;20036;-76
2024/02/25 07:50:10;;;;;;;3.55;2.50;;;;;;;7.55;100.00;99989.06;5284194;28;20497;-76
2024/02/25 07:52:42;;;;;;;4.47;3.05;;;;;;;7.60;100.00;99986.06;5277951;28;20028;-77
2024/02/25 07:55:15;;;;;;;5.43;2.92;;;;;;;7.65;100.00;100006.50;5285911;28;20038;-76
2024/02/25 07:57:47;;;;;;;4.28;2.60;;;;;;;7.60;100.00;99988.66;5264674;28;20049;-77
2024/02/25 08:00:19;;;;;;;4.20;2.50;;;;;;;7.65;100.00;100006.50;5263463;28;20028;-77
2024/02/25 08:02:52;;;;;;;2.90;2.28;;;;;;;7.63;100.00;99996.22;5264569;28;20051;-76
2024/02/25 08:05:25;;;;;;;;;;;;;;;8.32;100.00;99995.41;5266338;28;20031;-77
2024/02/25 08:07:57;;;;;;;3.50;2.10;;;;;;;7.78;100.00;100001.91;5265222;28;19920;-76
2024/02/25 08:10:29;;;;;;;4.47;2.55;;;;;;;7.63;100.00;99980.59;5258839;28;20036;-77
2024/02/25 08:13:01;;;;;;;3.50;2.00;;;;;;;7.81;100.00;100001.66;5265478;28;20112;-77
2024/02/25 08:15:33;;;;;;;4.22;2.40;;;;;;;7.84;100.00;100006.59;5266961;28;20040;-77
2024/02/25 08:18:05;;;;;;;2.85;1.92;;;;;;;7.87;100.00;100003.69;5264448;28;20032;-77
2024/02/25 08:20:37;;;;;;;3.20;2.10;;;;;;;7.86;100.00;100015.09;5268080;28;20036;-77
2024/02/25 08:23:09;;;;;;;3.45;2.17;;;;;;;7.90;100.00;100006.06;5267714;28;20032;-77
2024/02/25 08:25:40;;;;;;;3.38;1.92;;;;;;;7.94;100.00;100007.44;5258173;28;20036;-77
2024/02/25 08:28:13;;;;;;;4.60;2.50;;;;;;;7.92;100.00;100011.97;5262881;28;20494;-76
2024/02/25 08:30:46;;;;;;;4.45;2.33;;;;;;;7.99;100.00;100014.84;5262227;28;20036;-77
2024/02/25 08:33:17;;;;;;;3.65;2.40;;;;;;;7.91;100.00;99997.25;5264226;28;20663;-76
2024/02/25 08:35:49;;;;;;;4.93;2.40;;;;;;;8.04;100.00;100012.69;5265638;28;20047;-77
2024/02/25 08:38:21;;;;;;;3.63;2.92;;;;;;;8.09;100.00;100013.09;5262610;28;20091;-77
2024/02/25 08:40:54;;;;;;;3.95;2.47;;;;;;;8.12;100.00;100012.00;5263845;28;20033;-77
2024/02/25 08:43:26;;;;;;;3.87;3.40;;;;;;;8.25;100.00;100012.56;5264186;28;20043;-76
2024/02/25 08:45:58;;;;;;;3.58;2.92;;;;;;;8.26;100.00;100014.25;5264376;28;20394;-77
2024/02/25 08:48:30;;;;;;;4.57;2.90;;;;;;;8.28;100.00;100004.47;5264848;28;20032;-77
2024/02/25 08:51:02;;;;;;;5.90;3.00;;;;;;;8.29;100.00;100013.94;5267131;28;20048;-77
2024/02/25 08:53:34;;;;;;;5.10;2.95;;;;;;;8.35;100.00;100015.19;5265822;28;20032;-77
2024/02/25 08:56:06;;;;;;;4.30;3.17;;;;;;;8.38;100.00;100005.34;5268075;28;20058;-76
2024/02/25 08:58:39;;;;;;;3.28;2.75;;;;;;;8.50;100.00;100008.66;5280779;28;20036;-76
2024/02/25 09:01:11;;;;;;;4.82;3.65;;;;;;;8.66;100.00;100013.31;5283960;28;20386;-77
2024/02/25 09:03:43;;;;;;;4.68;3.05;;;;;;;8.69;100.00;100024.31;5283835;28;20036;-77
2024/02/25 09:06:15;;;;;;;5.65;3.10;;;;;;;8.79;100.00;100021.69;5281392;28;20028;-77
2024/02/25 09:08:46;;;;;;;5.05;3.05;;;;;;;8.82;100.00;100018.78;5283069;28;20303;-77
2024/02/25 09:11:19;;;;;;;4.78;3.03;;;;;;;8.83;100.00;100014.41;5283590;28;20138;-77
2024/02/25 09:13:51;;;;;;;3.60;2.90;;;;;;;8.87;100.00;100019.22;5285115;28;20032;-77
2024/02/25 09:16:23;;;;;;;5.05;3.10;;;;;;;8.86;100.00;100008.88;5281286;28;20036;-77
2024/02/25 09:18:55;;;;;;;4.22;2.58;;;;;;;8.97;100.00;100006.94;5280981;28;20032;-77
2024/02/25 09:21:26;;;;;;;6.68;3.42;;;;;;;8.92;100.00;100019.59;5283614;28;20394;-77
2024/02/25 09:24:01;;;;;;;4.60;3.00;;;;;;;8.94;100.00;100022.91;5280789;28;20063;-77
2024/02/25 09:26:32;;;;;;;5.32;3.13;;;;;;;8.84;100.00;100024.72;5280423;28;20047;-77
2024/02/25 09:29:04;;;;;;;3.53;2.42;;;;;;;8.87;100.00;100021.81;5281116;28;20194;-77
2024/02/25 09:31:36;;;;;;;4.72;2.50;;;;;;;8.83;100.00;100017.03;5284744;28;20027;-77
2024/02/25 09:34:11;;;;;;;4.20;2.58;;;;;;;8.86;100.00;100025.38;5281855;28;20046;-77
2024/02/25 09:36:44;;;;;;;3.40;2.30;;;;;;;8.86;100.00;100028.00;5280577;28;20028;-77
2024/02/25 09:39:16;;;;;;;3.95;2.20;;;;;;;8.92;100.00;100024.84;5271152;28;20032;-76
2024/02/25 09:41:51;;;;;;;3.80;2.33;;;;;;;9.00;100.00;100022.34;5281897;28;20031;-77
2024/02/25 09:44:25;;;;;;;4.65;2.67;;;;;;;8.80;100.00;100015.50;5281774;28;20024;-77
2024/02/25 09:46:57;;;;;;;3.55;2.50;;;;;;;8.88;100.00;100023.47;5265371;28;20047;-77
2024/02/25 09:49:29;;;;;;;4.75;2.80;;;;;;;8.89;100.00;100017.28;5284104;28;20035;-77
2024/02/25 09:52:02;;;;;;;3.47;2.22;;;;;;;9.10;100.00;100029.34;5280318;28;20063;-77
2024/02/25 09:54:36;;;;;;;5.55;2.50;;;;;;;9.25;100.00;100017.50;5282781;28;20083;-77
2024/02/25 09:57:08;;;;;;;3.83;2.00;;;;;;;9.37;100.00;100026.81;5278707;28;20044;-77
2024/02/25 09:59:40;;;;;;;5.50;2.17;;;;;;;9.45;100.00;100024.28;5278173;28;20249;-77
2024/02/25 10:02:13;;;;;;;2.70;1.77;;;;;;;9.56;100.00;100022.47;5281179;28;20028;-77
2024/02/25 10:04:45;;;;;;;3.77;1.87;;;;;;;9.58;100.00;100023.16;5265694;28;20458;-77
2024/02/25 10:07:18;;;;;;;3.00;2.28;;;;;;;9.53;100.00;100025.38;5286003;28;20296;-77
2024/02/25 10:09:50;;;;;;;5.72;2.10;;;;;;;9.61;100.00;100021.06;5267574;28;20425;-76
2024/02/25 10:12:22;;;;;;;3.78;1.88;;;;;;;9.57;100.00;100019.72;5279990;28;20024;-77
2024/02/25 10:14:54;;;;;;;2.25;1.58;;;;;;;9.66;100.00;100028.47;5278515;28;20040;-77
2024/02/25 10:17:26;;;;;;;3.35;2.00;;;;;;;9.67;100.00;100019.69;5279846;28;20070;-76
2024/02/25 10:20:01;;;;;;;3.72;1.73;;;;;;;9.61;100.00;100015.00;5283074;28;20039;-77
2024/02/25 10:22:33;;;;;;;3.08;1.70;;;;;;;9.52;100.00;100011.47;5282241;28;20027;-77
2024/02/25 10:25:07;;;;;;;2.88;1.50;;;;;;;9.57;100.00;100009.25;5282264;28;20098;-77
2024/02/25 10:27:39;;;;;;;3.42;1.90;;;;;;;9.58;100.00;100016.13;5281388;28;20036;-77
2024/02/25 10:30:12;;;;;;;3.80;1.58;;;;;;;9.69;100.00;100015.13;5281790;28;20404;-77
2024/02/25 10:32:44;;;;;;;3.28;1.60;;;;;;;9.74;100.00;100015.53;5282449;28;20146;-77
2024/02/25 10:35:15;;;;;;;5.00;2.15;;;;;;;9.81;100.00;100016.59;5281350;28;20027;-77
2024/02/25 10:37:50;;;;;;;3.03;1.80;;;;;;;9.91;100.00;100012.13;5283495;28;20027;-77
2024/02/25 10:40:22;;;;;;;5.68;2.33;;;;;;;9.98;100.00;100015.78;5283120;28;20059;-77
2024/02/25 10:42:55;;;;;;;4.75;2.10;;;;;;;10.07;100.00;100015.88;5282136;28;20035;-77
2024/02/25 10:45:28;;;;;;;2.50;1.70;;;;;;;10.07;100.00;100010.66;5284900;28;20036;-77
2024/02/25 10:48:00;;;;;;;4.78;1.88;;;;;;;10.10;100.00;100011.19;5281639;28;20794;-77
2024/02/25 10:50:32;;;;;;;4.45;1.83;;;;;;;10.18;100.00;100010.44;5280803;28;20477;-77
2024/02/25 10:53:08;;;;;;;3.17;1.73;;;;;;;10.11;100.00;100002.34;5277112;28;20043;-77
2024/02/25 10:55:42;;;;;;;4.82;1.60;;;;;;;10.15;100.00;100008.09;5274144;28;20820;-77
2024/02/25 10:58:16;;;;;;;3.92;1.63;;;;;;;10.21;100.00;100016.19;5276384;28;20036;-77
2024/02/25 11:00:49;;;;;;;2.78;1.35;;;;;;;10.22;100.00;100012.59;5280640;28;20028;-77
2024/02/25 11:03:21;;;;;;;5.40;1.50;;;;;;;10.25;100.00;100003.66;5276898;28;20032;-77
2024/02/25 11:05:55;;;;;;;4.30;1.50;;;;;;;10.28;100.00;100002.56;5282278;28;20032;-77
2024/02/25 11:08:34;;;;;;;2.97;1.63;;;;;;;10.43;100.00;100016.78;5283108;28;20035;-77
2024/02/25 11:11:10;;;;;;;3.75;1.08;;;;;;;10.51;100.00;100011.63;5284987;28;20098;-77
2024/02/25 11:13:44;;;;;;;3.10;1.27;;;;;;;10.50;100.00;100009.97;5281554;28;20036;-77
2024/02/25 11:16:16;;;;;;;3.13;1.10;;;;;;;10.37;100.00;100012.13;5281356;28;20054;-77
2024/02/25 11:18:48;;;;;;;3.60;1.30;;;;;;;10.32;100.00;100015.19;5282420;28;20385;-77
2024/02/25 11:21:20;;;;;;;2.97;1.30;;;;;;;10.30;100.00;100009.28;5277790;28;20046;-77
2024/02/25 11:23:52;;;;;;;3.58;1.00;;;;;;;10.24;100.00;100007.25;5282900;28;20564;-77
2024/02/25 11:26:33;;;;;;;3.92;1.20;;;;;;;10.34;100.00;100012.41;5258598;28;20416;-77
2024/02/25 11:29:22;;;;;;;2.47;0.90;;;;;;;10.57;100.00;100007.56;5283227;28;20032;-77
2024/02/25 11:31:57;;;;;;;3.67;1.10;;;;;;;10.53;100.00;99995.75;5283828;28;20670;-77
2024/02/25 11:34:32;;;;;;;6.45;1.58;;;;;;;10.64;100.00;99996.31;5281354;28;20059;-77
2024/02/25 11:37:08;;;;;;;3.65;1.05;;;;;;;10.88;100.00;99994.91;5284914;28;20035;-77
2024/02/25 11:39:40;;;;;;;2.65;1.10;;;;;;;10.96;100.00;99987.91;5281658;28;20036;-77
2024/02/25 11:42:12;;;;;;;4.05;1.27;;;;;;;11.14;100.00;99984.41;5283250;28;20031;-77
2024/02/25 11:44:43;;;;;;;3.65;1.08;;;;;;;11.23;100.00;99988.72;5283305;28;20113;-77
2024/02/25 11:47:15;;;;;;;3.83;1.60;;;;;;;11.42;100.00;99983.25;5282731;28;20032;-77
2024/02/25 11:49:47;;;;;;;3.13;1.02;;;;;;;11.47;100.00;99971.47;5280601;28;20488;-77
2024/02/25 11:52:19;;;;;;;3.45;1.15;;;;;;;11.51;100.00;99970.97;5284961;28;20040;-77
2024/02/25 11:54:51;;;;;;;2.97;0.90;;;;;;;11.55;100.00;99972.31;5286475;28;20035;-77